Time;durP1;ratioP1;P1;durP2;ratioP2;P2;SDS_P1;SDS_P2;PMS_P1;PMS_P2;Temp;Humidity;BMP_temperature;BMP_pressure;BME280_temperature;BME280_humidity;BME280_pressure;Samples;Min_cycle;Max_cycle;Signal;HPM_P1;HPM_P2
2023/05/19 00:00:18;;;;;;;8.75;2.97;;;;;;;10.24;82.76;95005.19;5029690;28;20036;-73
2023/05/19 00:02:44;;;;;;;4.63;3.40;;;;;;;10.25;83.04;95009.44;5046801;28;20037;-73
2023/05/19 00:05:11;;;;;;;4.18;3.10;;;;;;;10.27;82.62;95011.00;5046865;28;20032;-73
2023/05/19 00:07:37;;;;;;;4.28;2.90;;;;;;;10.24;82.11;95002.59;5029597;28;20422;-72
2023/05/19 00:10:04;;;;;;;5.32;3.05;;;;;;;10.22;82.56;94988.91;5030235;28;20515;-72
2023/05/19 00:12:31;;;;;;;7.60;3.72;;;;;;;10.25;82.22;95002.50;5030607;28;20510;-73
2023/05/19 00:14:56;;;;;;;4.25;3.50;;;;;;;10.23;82.24;94983.63;5029923;28;20042;-72
2023/05/19 00:17:22;;;;;;;5.63;3.80;;;;;;;10.13;81.92;94979.25;5029886;28;20033;-73
2023/05/19 00:19:47;;;;;;;5.05;3.70;;;;;;;9.96;82.79;94984.00;5032120;28;20045;-73
2023/05/19 00:22:13;;;;;;;6.38;4.05;;;;;;;10.16;81.86;94985.03;5029446;28;20474;-73
2023/05/19 00:24:39;;;;;;;5.50;4.05;;;;;;;10.13;82.52;94985.28;5029884;28;20108;-73
2023/05/19 00:27:04;;;;;;;6.35;3.97;;;;;;;10.13;82.80;94984.44;5030688;28;20479;-73
2023/05/19 00:29:30;;;;;;;4.43;3.50;;;;;;;10.14;82.75;94981.75;5031147;28;20296;-73
2023/05/19 00:31:55;;;;;;;4.90;3.92;;;;;;;10.16;81.61;94989.41;5013248;28;20025;-73
2023/05/19 00:34:21;;;;;;;4.93;4.30;;;;;;;10.08;82.87;94990.00;5029711;28;20037;-72
2023/05/19 00:36:46;;;;;;;6.00;3.97;;;;;;;10.07;82.95;94990.94;5047868;28;20025;-73
2023/05/19 00:39:11;;;;;;;6.32;4.10;;;;;;;10.32;82.79;94989.88;5049700;28;20044;-73
2023/05/19 00:41:37;;;;;;;6.45;4.05;;;;;;;10.11;83.46;94981.97;5046163;28;20020;-73
2023/05/19 00:44:02;;;;;;;5.55;4.40;;;;;;;10.13;82.91;94976.66;5013102;28;20478;-73
2023/05/19 00:46:29;;;;;;;6.15;4.47;;;;;;;10.15;83.08;94978.19;5029155;28;20106;-73
2023/05/19 00:48:54;;;;;;;6.07;4.20;;;;;;;9.99;83.78;94967.34;5044773;28;20029;-73
2023/05/19 00:51:20;;;;;;;6.18;4.38;;;;;;;10.10;83.27;94964.75;5048262;28;20040;-73
2023/05/19 00:53:47;;;;;;;5.88;4.13;;;;;;;10.17;82.79;94978.91;5009999;28;20480;-73
2023/05/19 00:56:13;;;;;;;7.43;4.63;;;;;;;10.09;83.16;94970.06;5025535;28;20034;-73
2023/05/19 00:58:39;;;;;;;4.97;4.40;;;;;;;10.24;82.88;94977.47;5012219;28;20049;-73
2023/05/19 01:01:06;;;;;;;6.65;4.32;;;;;;;10.19;82.33;94969.22;5029462;28;20056;-73
2023/05/19 01:03:34;;;;;;;5.97;4.00;;;;;;;10.21;81.34;94977.72;5011953;28;20124;-73
2023/05/19 01:06:05;;;;;;;5.82;4.18;;;;;;;10.27;81.87;94974.66;5015573;28;20048;-73
2023/05/19 01:08:35;;;;;;;5.82;4.40;;;;;;;10.22;82.02;94966.41;5033715;28;20056;-73
2023/05/19 01:11:00;;;;;;;7.55;4.97;;;;;;;10.35;82.37;94981.03;5032556;28;20112;-72
2023/05/19 01:13:29;;;;;;;10.32;6.20;;;;;;;10.08;82.78;94979.59;5016905;28;20112;-73
2023/05/19 01:16:05;;;;;;;8.52;5.68;;;;;;;10.17;82.88;94975.47;5029292;28;20041;-73
2023/05/19 01:18:39;;;;;;;9.85;6.82;;;;;;;10.03;82.84;94977.38;5030865;28;20046;-73
2023/05/19 01:21:23;;;;;;;7.40;5.30;;;;;;;10.14;81.14;94979.16;5034766;28;20052;-73
2023/05/19 01:24:00;;;;;;;5.97;4.85;;;;;;;10.02;81.47;94980.09;5032181;28;20462;-74
2023/05/19 01:26:51;;;;;;;7.57;5.60;;;;;;;10.05;82.37;94987.63;5049229;28;20091;-73
2023/05/19 01:29:42;;;;;;;6.43;4.97;;;;;;;10.02;82.73;94982.69;5032075;28;20547;-73
2023/05/19 01:32:07;;;;;;;6.47;4.35;;;;;;;10.09;82.60;94965.69;5029145;28;20423;-73
2023/05/19 01:34:34;;;;;;;5.18;4.40;;;;;;;10.00;82.19;94966.41;5029158;28;20033;-73
2023/05/19 01:37:00;;;;;;;6.68;4.22;;;;;;;10.07;81.92;94978.78;5028598;28;20025;-73
2023/05/19 01:39:25;;;;;;;7.43;4.45;;;;;;;10.09;82.05;94981.28;5045527;28;20033;-72
2023/05/19 01:41:51;;;;;;;5.30;4.50;;;;;;;10.02;82.61;94980.91;5027728;28;20484;-73
2023/05/19 01:44:16;;;;;;;4.90;3.80;;;;;;;10.14;82.18;94986.94;5011747;28;20401;-73
2023/05/19 01:46:42;;;;;;;6.15;4.45;;;;;;;9.95;82.46;94981.53;5012485;28;20026;-73
2023/05/19 01:49:07;;;;;;;5.78;4.22;;;;;;;10.02;82.74;94977.50;5012799;28;20495;-72
2023/05/19 01:51:33;;;;;;;5.90;4.47;;;;;;;9.96;83.14;94972.78;5013981;28;20384;-73
2023/05/19 01:53:58;;;;;;;5.07;4.15;;;;;;;9.83;83.59;94971.16;5029137;28;20037;-73
2023/05/19 01:56:41;;;;;;;7.15;4.30;;;;;;;9.87;83.17;94952.75;5012542;28;20121;-73
2023/05/19 01:59:15;;;;;;;6.90;4.32;;;;;;;9.88;82.97;94986.34;5045690;28;20047;-73
2023/05/19 02:01:51;;;;;;;6.40;4.63;;;;;;;9.96;82.99;94986.59;5036254;28;20545;-73
2023/05/19 02:04:42;;;;;;;7.57;4.55;;;;;;;9.74;83.45;94995.19;5036074;28;20553;-72
2023/05/19 02:07:34;;;;;;;6.72;5.00;;;;;;;9.65;83.40;94989.91;5031414;28;20048;-73
2023/05/19 02:10:10;;;;;;;6.20;5.43;;;;;;;9.60;84.28;94990.25;5033374;28;20052;-73
2023/05/19 02:12:39;;;;;;;6.50;5.22;;;;;;;9.49;84.88;94979.84;5015670;28;20049;-73
2023/05/19 02:15:20;;;;;;;6.32;5.22;;;;;;;9.71;84.61;94987.66;5035824;28;20024;-73
2023/05/19 02:17:47;;;;;;;7.15;5.30;;;;;;;9.72;84.11;94970.31;5035425;28;20487;-73
2023/05/19 02:20:13;;;;;;;6.53;5.30;;;;;;;9.90;81.96;94983.66;5023953;28;20034;-72
2023/05/19 02:22:38;;;;;;;6.43;5.57;;;;;;;9.73;82.98;94997.94;5049729;28;20028;-73
2023/05/19 02:25:04;;;;;;;6.13;5.15;;;;;;;9.78;83.16;94988.84;5018912;28;20036;-73
2023/05/19 02:27:29;;;;;;;6.18;5.20;;;;;;;9.77;83.50;94999.31;5051795;28;20063;-72
2023/05/19 02:29:55;;;;;;;6.05;5.18;;;;;;;9.82;82.93;94985.06;5033586;28;20083;-73
2023/05/19 02:32:20;;;;;;;6.32;4.90;;;;;;;9.93;82.56;94989.41;5035210;28;20040;-73
2023/05/19 02:34:47;;;;;;;7.18;6.05;;;;;;;9.79;81.18;94951.56;5035086;28;20484;-72
2023/05/19 02:37:15;;;;;;;6.65;5.68;;;;;;;9.91;81.63;95000.84;5038094;28;20029;-73
2023/05/19 02:39:41;;;;;;;8.02;5.90;;;;;;;9.69;81.92;95002.50;5015073;28;20029;-72
2023/05/19 02:42:06;;;;;;;6.18;5.57;;;;;;;9.71;82.03;95005.81;5015373;28;20091;-73
2023/05/19 02:44:32;;;;;;;6.60;5.10;;;;;;;9.67;81.89;94993.19;5034832;28;20034;-73
2023/05/19 02:46:57;;;;;;;6.53;5.57;;;;;;;9.65;82.14;95000.28;5040747;28;20079;-73
2023/05/19 02:49:23;;;;;;;6.63;5.72;;;;;;;9.39;82.99;94990.09;5036278;28;20025;-73
2023/05/19 02:51:48;;;;;;;6.88;5.35;;;;;;;9.31;83.56;95008.00;5017821;28;20017;-73
2023/05/19 02:54:13;;;;;;;6.47;5.43;;;;;;;9.40;83.32;95009.91;5034818;28;20055;-72
2023/05/19 02:56:39;;;;;;;6.45;5.13;;;;;;;9.52;82.54;94998.59;5034640;28;20032;-73
2023/05/19 02:59:05;;;;;;;8.07;5.70;;;;;;;9.58;81.76;95005.09;5051429;28;20033;-72
2023/05/19 03:01:31;;;;;;;7.20;5.50;;;;;;;9.40;82.40;95002.94;5052465;28;20055;-72
2023/05/19 03:03:57;;;;;;;6.88;5.18;;;;;;;9.40;82.68;95005.53;5048687;28;20033;-73
2023/05/19 03:06:23;;;;;;;7.68;5.22;;;;;;;9.44;82.42;95007.91;5031254;28;20037;-72
2023/05/19 03:08:49;;;;;;;7.00;5.78;;;;;;;9.24;83.06;95009.38;4998467;28;20500;-73
2023/05/19 03:11:14;;;;;;;8.30;6.35;;;;;;;9.25;83.18;95011.88;5031643;28;20032;-73
2023/05/19 03:13:40;;;;;;;9.15;6.05;;;;;;;9.15;83.64;95011.72;5031756;28;20041;-73
2023/05/19 03:16:06;;;;;;;8.98;6.78;;;;;;;9.11;83.42;95002.53;5015640;28;20034;-73
2023/05/19 03:18:32;;;;;;;8.32;6.32;;;;;;;9.23;83.44;95011.16;5014811;28;20037;-73
2023/05/19 03:20:58;;;;;;;9.10;6.30;;;;;;;9.16;83.59;95012.53;5015460;28;20029;-73
2023/05/19 03:23:23;;;;;;;8.38;6.10;;;;;;;9.22;84.07;95012.13;5031127;28;20492;-73
2023/05/19 03:25:49;;;;;;;9.45;6.22;;;;;;;9.14;83.94;95017.03;5030873;28;20017;-72
2023/05/19 03:28:15;;;;;;;8.95;6.60;;;;;;;9.21;84.32;95013.03;5037956;28;20037;-73
2023/05/19 03:30:41;;;;;;;7.82;5.97;;;;;;;9.39;83.50;95005.66;5050959;28;20040;-73
2023/05/19 03:33:06;;;;;;;7.68;6.18;;;;;;;9.43;83.89;95016.63;5016559;28;20041;-73
2023/05/19 03:35:32;;;;;;;8.35;6.57;;;;;;;9.40;84.18;95013.31;5030721;28;20029;-73
2023/05/19 03:37:57;;;;;;;9.27;6.43;;;;;;;9.42;84.50;95014.94;5043573;28;20067;-73
2023/05/19 03:40:23;;;;;;;9.50;6.97;;;;;;;9.25;85.10;95006.69;5050513;28;20029;-73
2023/05/19 03:42:48;;;;;;;8.82;6.70;;;;;;;9.53;84.47;95022.78;5038779;28;20033;-72
2023/05/19 03:45:14;;;;;;;10.70;7.00;;;;;;;9.56;83.71;95019.97;5032826;28;20025;-72
2023/05/19 03:47:40;;;;;;;12.40;7.63;;;;;;;9.44;84.75;95018.28;5050432;28;20044;-73
2023/05/19 03:50:05;;;;;;;10.38;7.93;;;;;;;9.61;84.79;95016.06;5049583;28;20048;-73
2023/05/19 03:52:31;;;;;;;11.60;8.65;;;;;;;9.72;85.39;95020.44;5050912;28;20036;-73
2023/05/19 03:54:57;;;;;;;11.18;8.90;;;;;;;9.68;85.17;95026.81;5051433;28;20110;-73
2023/05/19 03:57:22;;;;;;;10.18;7.97;;;;;;;9.81;83.61;95030.13;5025888;28;20029;-73
2023/05/19 03:59:48;;;;;;;10.77;7.85;;;;;;;9.84;83.55;95026.47;5014958;28;20025;-72
2023/05/19 04:02:13;;;;;;;10.80;7.95;;;;;;;9.76;83.62;95021.84;5031673;28;20443;-73
2023/05/19 04:04:39;;;;;;;12.27;8.40;;;;;;;9.82;84.23;95025.75;5036873;28;20107;-72
2023/05/19 04:07:05;;;;;;;8.90;7.43;;;;;;;10.14;84.39;95028.47;5050623;28;20438;-73
2023/05/19 04:09:33;;;;;;;9.27;7.30;;;;;;;10.17;84.35;95020.44;5032714;28;20431;-73
2023/05/19 04:12:00;;;;;;;11.85;8.48;;;;;;;10.14;84.18;95022.44;5048274;28;20024;-72
2023/05/19 04:14:25;;;;;;;10.35;7.95;;;;;;;10.35;83.50;95020.78;5049903;28;20068;-73
2023/05/19 04:16:51;;;;;;;8.98;7.45;;;;;;;10.46;83.35;95023.38;5034884;28;20033;-73
2023/05/19 04:19:16;;;;;;;10.52;7.88;;;;;;;10.69;82.19;95031.94;5030041;28;20037;-73
2023/05/19 04:21:41;;;;;;;10.63;7.72;;;;;;;10.98;82.08;95036.59;5030874;28;20025;-73
2023/05/19 04:24:07;;;;;;;10.15;8.13;;;;;;;11.77;78.71;95041.38;5031648;28;20439;-73
2023/05/19 04:26:33;;;;;;;12.00;8.75;;;;;;;11.73;78.86;95051.22;5029887;28;20458;-73
2023/05/19 04:28:59;;;;;;;9.05;7.18;;;;;;;11.72;78.47;95048.72;5048838;28;20460;-73
2023/05/19 04:31:26;;;;;;;9.10;7.22;;;;;;;11.62;77.95;95033.88;5049980;28;20091;-73
2023/05/19 04:33:53;;;;;;;31.90;20.02;;;;;;;12.26;77.67;95032.84;5017124;28;20067;-73
2023/05/19 04:36:20;;;;;;;26.00;18.70;;;;;;;13.26;74.87;95041.53;5033341;28;20068;-73
2023/05/19 04:38:46;;;;;;;19.25;13.18;;;;;;;13.83;69.86;95042.44;5015412;28;20033;-73
2023/05/19 04:41:11;;;;;;;10.55;8.40;;;;;;;14.39;67.39;95040.72;5029135;28;20034;-73
2023/05/19 04:43:40;;;;;;;9.90;7.78;;;;;;;15.28;64.93;95042.66;5029853;28;20048;-73
2023/05/19 04:46:06;;;;;;;8.50;6.30;;;;;;;15.07;62.67;95038.56;5013471;28;20040;-73
2023/05/19 04:48:32;;;;;;;6.57;5.88;;;;;;;14.82;61.87;95052.34;5029103;28;20037;-73
2023/05/19 04:51:00;;;;;;;7.35;6.10;;;;;;;14.57;63.94;95044.25;5030308;28;20071;-72
2023/05/19 04:53:27;;;;;;;8.65;6.40;;;;;;;14.13;63.45;95046.59;5033969;28;20043;-73
2023/05/19 04:55:52;;;;;;;9.52;7.10;;;;;;;14.44;63.32;95047.16;5031477;28;20029;-72
2023/05/19 04:58:18;;;;;;;6.95;6.18;;;;;;;14.51;62.72;95056.06;5012877;28;20124;-73
2023/05/19 05:00:44;;;;;;;7.95;6.32;;;;;;;14.45;63.90;95037.50;5015957;28;20052;-73
2023/05/19 05:03:11;;;;;;;8.30;6.53;;;;;;;14.42;67.74;95038.63;5037400;28;20488;-73
2023/05/19 05:05:36;;;;;;;8.10;6.72;;;;;;;14.59;67.20;95047.50;5028944;28;20026;-72
2023/05/19 05:08:02;;;;;;;7.05;6.03;;;;;;;14.82;64.69;95044.50;5041050;28;20025;-73
2023/05/19 05:10:27;;;;;;;8.68;6.50;;;;;;;14.27;66.50;95046.13;5070615;28;20082;-73
2023/05/19 05:12:53;;;;;;;9.10;6.40;;;;;;;13.39;66.93;95050.72;5055998;28;20509;-73
2023/05/19 05:15:19;;;;;;;8.15;6.63;;;;;;;13.58;66.18;95051.69;5050830;28;20074;-72
2023/05/19 05:17:45;;;;;;;8.75;6.78;;;;;;;13.87;65.51;95049.00;5050526;28;20041;-73
2023/05/19 05:20:11;;;;;;;8.93;6.63;;;;;;;14.04;66.62;95047.44;5030931;28;20026;-72
2023/05/19 05:22:40;;;;;;;8.15;6.63;;;;;;;13.76;65.44;95033.50;5027780;28;20036;-72
2023/05/19 05:25:07;;;;;;;8.23;6.68;;;;;;;13.91;66.28;95049.56;5011758;28;20080;-73
2023/05/19 05:27:32;;;;;;;8.57;6.50;;;;;;;14.16;64.74;95046.31;4995309;28;20041;-72
2023/05/19 05:29:58;;;;;;;8.82;6.50;;;;;;;14.32;63.45;95050.94;5028971;28;20389;-73
2023/05/19 05:32:23;;;;;;;8.70;6.70;;;;;;;14.40;65.09;95050.19;5027956;28;20038;-72
2023/05/19 05:34:49;;;;;;;8.13;6.80;;;;;;;14.34;64.99;95043.75;5032012;28;20029;-73
2023/05/19 05:37:14;;;;;;;10.20;6.82;;;;;;;14.40;63.86;95050.19;5045728;28;20029;-75
2023/05/19 05:39:40;;;;;;;10.93;7.57;;;;;;;14.89;67.44;95046.38;5046781;28;20487;-74
2023/05/19 05:42:07;;;;;;;10.13;7.20;;;;;;;14.92;66.82;95042.66;5041237;28;20025;-74
2023/05/19 05:44:34;;;;;;;9.13;6.72;;;;;;;15.13;60.63;95043.19;5052930;28;20029;-74
2023/05/19 05:47:00;;;;;;;9.18;6.50;;;;;;;14.94;64.24;95043.31;5024163;28;20026;-74
2023/05/19 05:49:26;;;;;;;7.57;6.45;;;;;;;14.87;64.25;95040.47;5032837;28;20438;-74
2023/05/19 05:51:52;;;;;;;13.40;6.57;;;;;;;15.03;64.03;95050.28;5020547;28;20013;-74
2023/05/19 05:54:20;;;;;;;8.57;7.07;;;;;;;15.65;63.96;95051.13;5037086;28;20381;-74
2023/05/19 05:56:47;;;;;;;8.23;7.28;;;;;;;15.64;61.48;95030.34;5036166;28;20029;-74
2023/05/19 05:59:13;;;;;;;8.10;6.55;;;;;;;15.79;58.75;95056.84;5038594;28;20552;-74
2023/05/19 06:01:38;;;;;;;8.00;6.82;;;;;;;15.70;59.88;95069.06;5071719;28;20037;-74
2023/05/19 06:04:04;;;;;;;8.45;6.40;;;;;;;15.55;61.03;95071.38;5053319;28;20033;-74
2023/05/19 06:06:30;;;;;;;9.38;7.07;;;;;;;15.83;61.74;95079.16;5053888;28;20032;-74
2023/05/19 06:08:55;;;;;;;10.73;7.10;;;;;;;15.44;60.40;95074.22;5053663;28;20521;-74
2023/05/19 06:11:21;;;;;;;8.63;6.93;;;;;;;15.40;60.74;95073.69;5035614;28;20024;-74
2023/05/19 06:13:46;;;;;;;8.32;7.03;;;;;;;15.65;59.90;95071.25;5035770;28;20094;-74
2023/05/19 06:16:12;;;;;;;14.48;7.45;;;;;;;16.06;59.19;95080.28;5035574;28;20028;-74
2023/05/19 06:18:37;;;;;;;10.00;7.18;;;;;;;15.71;58.80;95069.88;5035750;28;20048;-74
2023/05/19 06:21:03;;;;;;;9.73;7.30;;;;;;;15.71;59.93;95082.97;5052417;28;20017;-74
2023/05/19 06:23:29;;;;;;;9.05;7.40;;;;;;;15.58;60.05;95084.16;5042349;28;20025;-74
2023/05/19 06:25:55;;;;;;;10.77;7.53;;;;;;;15.18;59.75;95053.19;5035261;28;20057;-74
2023/05/19 06:28:21;;;;;;;13.07;7.57;;;;;;;15.65;60.52;95079.94;5053383;28;20493;-73
2023/05/19 06:30:46;;;;;;;11.70;7.70;;;;;;;15.78;59.35;95060.44;5023784;28;20099;-74
2023/05/19 06:33:11;;;;;;;8.07;6.97;;;;;;;16.22;58.69;95068.25;5031630;28;20487;-74
2023/05/19 06:35:37;;;;;;;9.98;7.10;;;;;;;16.35;59.66;95063.38;5032896;28;20487;-74
2023/05/19 06:38:02;;;;;;;10.13;6.47;;;;;;;16.25;57.59;95067.94;5015121;28;20494;-74
2023/05/19 06:40:28;;;;;;;10.57;6.70;;;;;;;16.68;57.37;95068.78;5014010;28;20033;-74
2023/05/19 06:42:53;;;;;;;8.02;6.95;;;;;;;16.60;58.59;95072.19;5031793;28;20029;-74
2023/05/19 06:45:21;;;;;;;8.75;6.90;;;;;;;16.37;57.51;95077.16;5030671;28;20087;-74
2023/05/19 06:47:47;;;;;;;11.43;6.65;;;;;;;16.40;56.78;95073.41;4999503;28;20403;-74
2023/05/19 06:50:12;;;;;;;7.65;6.63;;;;;;;16.78;56.34;95071.31;5031112;28;20026;-74
2023/05/19 06:52:38;;;;;;;9.90;7.25;;;;;;;16.77;56.33;95057.41;5014508;28;20037;-75
2023/05/19 06:55:04;;;;;;;10.88;7.00;;;;;;;16.39;60.36;95090.13;5039898;28;20028;-74
2023/05/19 06:57:29;;;;;;;11.27;6.97;;;;;;;16.39;58.56;95084.91;5031330;28;20487;-74
2023/05/19 06:59:54;;;;;;;8.90;6.65;;;;;;;16.51;58.85;95081.00;5035646;28;20017;-74
2023/05/19 07:02:20;;;;;;;9.50;7.28;;;;;;;16.68;58.03;95084.53;5052569;28;20059;-74
2023/05/19 07:04:46;;;;;;;10.98;6.88;;;;;;;16.73;57.89;95066.50;5052570;28;20028;-74
2023/05/19 07:07:12;;;;;;;9.13;7.03;;;;;;;16.78;56.50;95072.16;5051147;28;20044;-75
2023/05/19 07:09:37;;;;;;;8.65;6.78;;;;;;;17.10;55.03;95094.19;5034508;28;20064;-74
2023/05/19 07:12:02;;;;;;;8.90;6.68;;;;;;;17.05;58.01;95083.34;5049483;28;20478;-74
2023/05/19 07:14:28;;;;;;;10.88;5.72;;;;;;;16.97;57.60;95090.25;5014974;28;20396;-75
2023/05/19 07:16:53;;;;;;;9.90;5.65;;;;;;;17.19;55.15;95072.25;5031051;28;20569;-78
2023/05/19 07:19:19;;;;;;;6.63;5.57;;;;;;;17.26;56.12;95062.75;5014752;28;20058;-78
2023/05/19 07:21:45;;;;;;;8.88;5.88;;;;;;;17.78;53.78;95088.75;5030929;28;20124;-75
2023/05/19 07:24:10;;;;;;;9.82;5.60;;;;;;;17.66;54.60;95090.00;5030945;28;20060;-74
2023/05/19 07:26:36;;;;;;;7.55;5.68;;;;;;;18.04;53.90;95090.38;5014491;28;20479;-75
2023/05/19 07:29:01;;;;;;;9.43;5.43;;;;;;;17.81;52.52;95096.31;5032606;28;20530;-75
2023/05/19 07:31:27;;;;;;;8.30;5.57;;;;;;;17.49;51.14;95091.81;5032006;28;20095;-75
2023/05/19 07:33:52;;;;;;;6.63;5.25;;;;;;;16.76;52.67;95089.81;5014388;28;20034;-75
2023/05/19 07:36:18;;;;;;;9.30;6.22;;;;;;;16.79;53.06;95091.31;5012294;28;20499;-75
2023/05/19 07:38:45;;;;;;;7.30;5.28;;;;;;;16.97;54.32;95100.75;5032804;28;20056;-75
2023/05/19 07:41:10;;;;;;;10.57;6.00;;;;;;;17.06;54.22;95098.16;5031533;28;20108;-75
2023/05/19 07:43:36;;;;;;;9.57;5.70;;;;;;;17.30;53.01;95085.06;5030917;28;20037;-75
2023/05/19 07:46:01;;;;;;;6.90;5.85;;;;;;;17.31;53.40;95076.22;5031327;28;20033;-75
2023/05/19 07:48:27;;;;;;;8.27;5.55;;;;;;;17.39;53.16;95083.28;5030760;28;20046;-75
2023/05/19 07:50:52;;;;;;;7.20;5.57;;;;;;;17.09;52.48;95076.81;5014108;28;20101;-75
2023/05/19 07:53:18;;;;;;;8.38;6.32;;;;;;;17.65;50.49;95088.38;5030287;28;20033;-74
2023/05/19 07:55:44;;;;;;;9.52;6.10;;;;;;;17.14;50.78;95085.03;5013682;28;20056;-75
2023/05/19 07:58:10;;;;;;;8.48;5.95;;;;;;;17.28;51.58;95081.78;5030446;28;20040;-74
2023/05/19 08:00:36;;;;;;;9.43;6.03;;;;;;;16.51;53.43;95084.44;5030375;28;20033;-74
2023/05/19 08:03:02;;;;;;;10.02;6.25;;;;;;;16.86;53.23;95087.91;5030482;28;20380;-74
2023/05/19 08:05:28;;;;;;;7.07;5.97;;;;;;;16.86;52.40;95081.84;5030330;28;20040;-74
2023/05/19 08:07:57;;;;;;;8.00;5.90;;;;;;;17.07;54.01;95084.03;5013823;28;20038;-75
2023/05/19 08:10:22;;;;;;;7.60;6.38;;;;;;;17.13;53.75;95091.25;5014158;28;20039;-75
2023/05/19 08:12:48;;;;;;;8.65;6.95;;;;;;;17.39;53.79;95086.72;5031466;28;20030;-75
2023/05/19 08:15:15;;;;;;;8.40;6.80;;;;;;;17.34;53.20;95085.56;5030093;28;20045;-75
2023/05/19 08:17:40;;;;;;;10.05;6.63;;;;;;;17.68;51.27;95077.53;5031354;28;20034;-74
2023/05/19 08:20:08;;;;;;;9.93;6.25;;;;;;;17.58;51.78;95085.59;5013657;28;20036;-74
2023/05/19 08:22:34;;;;;;;8.27;6.35;;;;;;;17.91;51.21;95075.09;5029983;28;20108;-74
2023/05/19 08:25:00;;;;;;;9.77;5.70;;;;;;;18.27;51.30;95087.84;4997144;28;20040;-74
2023/05/19 08:27:25;;;;;;;7.35;6.20;;;;;;;18.52;51.40;95086.00;5013439;28;20037;-75
2023/05/19 08:29:51;;;;;;;8.00;6.25;;;;;;;18.53;50.52;95082.38;5013447;28;20029;-74
2023/05/19 08:32:16;;;;;;;8.77;6.93;;;;;;;18.49;50.73;95075.81;5029841;28;20025;-75
2023/05/19 08:34:42;;;;;;;10.40;7.05;;;;;;;18.45;49.60;95083.22;5029835;28;20037;-75
2023/05/19 08:37:07;;;;;;;7.75;6.80;;;;;;;18.84;50.07;95077.19;5029810;28;20044;-75
2023/05/19 08:39:33;;;;;;;7.97;6.70;;;;;;;19.19;50.26;95083.78;4997055;28;20034;-75
2023/05/19 08:42:00;;;;;;;8.32;6.10;;;;;;;19.31;48.27;95084.19;5013381;28;20030;-75
2023/05/19 08:44:25;;;;;;;9.43;6.60;;;;;;;19.16;51.17;95072.75;5029716;28;20513;-75
2023/05/19 08:46:51;;;;;;;10.15;6.95;;;;;;;19.32;51.74;95079.72;5013167;28;20037;-75
2023/05/19 08:49:18;;;;;;;9.90;7.00;;;;;;;19.38;49.37;95076.41;5013354;28;20100;-75
2023/05/19 08:51:57;;;;;;;11.85;8.38;;;;;;;19.06;48.91;95070.34;5013180;28;20050;-74
2023/05/19 08:54:24;;;;;;;10.75;7.55;;;;;;;18.97;49.25;95084.53;5013493;28;20041;-75
2023/05/19 08:56:49;;;;;;;10.75;7.68;;;;;;;19.08;47.93;95073.59;5013032;28;20030;-75
2023/05/19 08:59:15;;;;;;;12.13;7.63;;;;;;;19.40;48.20;95071.78;4996769;28;20030;-74
2023/05/19 09:01:42;;;;;;;12.43;7.82;;;;;;;19.42;48.11;95069.81;5029415;28;20033;-75
2023/05/19 09:04:07;;;;;;;9.77;7.80;;;;;;;19.63;48.77;95072.59;5013375;28;20506;-75
2023/05/19 09:06:33;;;;;;;9.65;7.70;;;;;;;19.84;48.72;95071.16;5012912;28;20033;-74
2023/05/19 09:08:59;;;;;;;10.30;7.53;;;;;;;19.90;47.99;95065.16;5031330;28;20049;-75
2023/05/19 09:11:24;;;;;;;11.00;8.18;;;;;;;19.74;47.55;95067.94;5017041;28;20025;-75
2023/05/19 09:13:50;;;;;;;11.82;8.10;;;;;;;19.69;47.84;95062.38;5035014;28;20438;-75
2023/05/19 09:16:16;;;;;;;11.88;7.45;;;;;;;19.70;48.10;95064.03;5033423;28;20499;-75
2023/05/19 09:18:55;;;;;;;10.82;7.82;;;;;;;19.38;47.57;95057.97;5033525;28;20041;-74
2023/05/19 09:21:30;;;;;;;10.45;7.70;;;;;;;19.23;47.62;95054.47;5000898;28;20586;-74
2023/05/19 09:23:57;;;;;;;14.45;8.65;;;;;;;19.43;48.12;95047.72;5000355;28;20099;-74
2023/05/19 09:26:23;;;;;;;9.88;7.57;;;;;;;19.33;48.38;95049.75;5000624;28;20029;-74
2023/05/19 09:28:48;;;;;;;11.25;7.88;;;;;;;19.18;48.67;95047.88;5016854;28;20042;-74
2023/05/19 09:31:14;;;;;;;11.48;8.32;;;;;;;19.52;49.13;95051.94;5034294;28;20021;-74
2023/05/19 09:33:41;;;;;;;10.32;7.93;;;;;;;19.32;48.99;95051.56;5016681;28;20044;-74
2023/05/19 09:36:07;;;;;;;11.05;7.85;;;;;;;19.41;48.10;95037.34;5033030;28;20026;-75
2023/05/19 09:38:34;;;;;;;10.68;7.55;;;;;;;19.61;48.63;95050.03;5000094;28;20048;-74
2023/05/19 09:40:59;;;;;;;10.68;7.00;;;;;;;19.54;48.38;95051.75;5032925;28;20027;-74
2023/05/19 09:43:29;;;;;;;11.32;8.02;;;;;;;19.56;49.14;95034.78;5016661;28;20033;-75
2023/05/19 09:46:07;;;;;;;11.25;7.85;;;;;;;19.70;48.03;95048.22;5016484;28;20029;-74
2023/05/19 09:48:35;;;;;;;9.35;7.30;;;;;;;19.36;47.99;95041.50;5033097;28;20573;-75
2023/05/19 09:51:01;;;;;;;8.63;7.43;;;;;;;19.61;48.49;95043.00;5032759;28;20033;-74
2023/05/19 09:53:29;;;;;;;9.40;7.43;;;;;;;19.74;46.40;95045.03;5016530;28;20037;-74
2023/05/19 09:55:58;;;;;;;10.73;7.93;;;;;;;19.84;48.17;95034.25;5016353;28;20056;-74
2023/05/19 09:58:25;;;;;;;9.07;7.40;;;;;;;19.64;47.57;95033.91;5016906;28;20056;-74
2023/05/19 10:00:51;;;;;;;11.93;7.57;;;;;;;19.62;48.26;95046.44;5016356;28;20026;-74
2023/05/19 10:03:17;;;;;;;12.02;8.90;;;;;;;19.56;46.63;95041.88;5016262;28;20025;-74
2023/05/19 10:05:43;;;;;;;8.43;7.18;;;;;;;19.59;46.62;95037.06;5016135;28;20021;-75
2023/05/19 10:08:09;;;;;;;10.82;8.07;;;;;;;19.48;48.06;95034.84;5015922;28;20037;-74
2023/05/19 10:10:38;;;;;;;11.13;7.70;;;;;;;19.54;47.23;95031.50;5016116;28;20022;-75
2023/05/19 10:13:04;;;;;;;9.00;7.20;;;;;;;19.60;48.36;95029.97;4999982;28;20032;-74
2023/05/19 10:15:30;;;;;;;14.00;7.68;;;;;;;19.61;48.09;95031.59;4999557;28;20468;-74
2023/05/19 10:17:55;;;;;;;10.05;7.32;;;;;;;19.83;47.26;95032.59;5032242;28;20048;-74
2023/05/19 10:20:21;;;;;;;14.55;10.48;;;;;;;19.77;47.83;95025.41;5015545;28;20530;-74
2023/05/19 10:22:47;;;;;;;11.25;7.55;;;;;;;20.08;47.42;95033.19;5015866;28;20396;-74
2023/05/19 10:25:14;;;;;;;12.45;7.63;;;;;;;20.06;46.15;95017.56;5016060;28;20407;-74
2023/05/19 10:27:47;;;;;;;9.80;7.38;;;;;;;20.14;46.80;95018.47;5015661;28;20034;-74
2023/05/19 10:30:46;;;;;;;9.82;7.63;;;;;;;20.13;47.08;95008.91;5016043;28;20029;-74
2023/05/19 10:33:14;;;;;;;9.52;7.18;;;;;;;20.16;46.97;95008.56;5030960;28;20053;-75
2023/05/19 10:35:50;;;;;;;10.27;7.60;;;;;;;19.96;46.53;95024.91;5015625;28;20056;-74
2023/05/19 10:38:20;;;;;;;10.50;7.65;;;;;;;20.05;46.30;95009.81;5031993;28;20037;-74
2023/05/19 10:41:00;;;;;;;7.80;6.97;;;;;;;20.16;46.54;95006.72;5015640;28;20423;-74
2023/05/19 10:43:45;;;;;;;12.03;7.90;;;;;;;20.22;46.37;95010.47;5015890;28;20037;-74
2023/05/19 10:46:10;;;;;;;10.23;7.32;;;;;;;20.34;45.82;95008.19;5031771;28;20271;-74
2023/05/19 10:48:36;;;;;;;13.23;7.07;;;;;;;20.39;45.13;95004.00;5031906;28;20059;-74
2023/05/19 10:51:01;;;;;;;10.43;6.88;;;;;;;20.33;45.20;95003.91;5031607;28;20097;-74
2023/05/19 10:53:33;;;;;;;7.03;6.32;;;;;;;20.14;45.20;95003.44;5015331;28;20041;-74
2023/05/19 10:56:02;;;;;;;9.90;7.53;;;;;;;20.30;44.67;94992.72;5031567;28;20017;-74
2023/05/19 10:58:40;;;;;;;7.93;6.40;;;;;;;20.40;44.61;95003.00;5033100;28;20095;-74
2023/05/19 11:01:15;;;;;;;10.63;6.97;;;;;;;20.62;44.76;94995.22;5031429;28;20017;-74
2023/05/19 11:03:52;;;;;;;8.73;6.90;;;;;;;20.39;44.55;94993.44;5031369;28;20175;-74
2023/05/19 11:06:34;;;;;;;8.80;6.53;;;;;;;20.43;44.43;94978.91;5031384;28;20029;-74
2023/05/19 11:09:22;;;;;;;11.18;7.60;;;;;;;20.48;43.95;94992.38;5015589;28;20061;-74
2023/05/19 11:11:51;;;;;;;9.73;6.68;;;;;;;20.43;43.70;94997.38;5016117;28;20024;-74
2023/05/19 11:14:18;;;;;;;8.52;6.97;;;;;;;20.71;43.21;94989.63;5031191;28;20037;-75
2023/05/19 11:16:47;;;;;;;9.13;6.55;;;;;;;20.44;42.33;94985.81;5031060;28;20553;-74
2023/05/19 11:19:18;;;;;;;9.98;7.13;;;;;;;20.52;45.01;94996.25;5031039;28;20029;-75
2023/05/19 11:21:51;;;;;;;8.07;6.57;;;;;;;20.37;43.62;94990.19;5031056;28;20411;-74
2023/05/19 11:24:36;;;;;;;7.78;6.80;;;;;;;20.38;43.54;94983.91;5014881;28;20634;-74
2023/05/19 11:27:19;;;;;;;8.55;6.78;;;;;;;20.20;42.96;94986.13;5014930;28;20029;-73
2023/05/19 11:29:47;;;;;;;10.88;6.63;;;;;;;20.40;43.54;94987.19;5032158;28;20037;-73
2023/05/19 11:32:12;;;;;;;8.93;6.65;;;;;;;20.03;43.11;94990.72;5014129;28;20492;-74